createdAt,value
2023-01-17T00:02:02.904Z,6.00
2023-01-17T00:04:48.557Z,9.25
2023-01-17T00:07:36.588Z,9.00
2023-01-17T00:10:18.389Z,10.25
2023-01-17T00:12:51.036Z,5.25
2023-01-17T00:15:20.360Z,7.00
2023-01-17T00:17:48.515Z,6.25
2023-01-17T00:20:37.052Z,6.50
2023-01-17T00:23:43.137Z,7.75
2023-01-17T00:26:16.993Z,7.00
2023-01-17T00:28:44.610Z,4.75
2023-01-17T00:31:13.638Z,5.00
2023-01-17T00:33:43.712Z,4.00
2023-01-17T00:36:11.366Z,6.75
2023-01-17T00:38:39.705Z,5.00
2023-01-17T00:41:12.135Z,5.50
2023-01-17T00:43:57.822Z,7.00
2023-01-17T00:46:43.566Z,5.50
2023-01-17T00:49:29.333Z,3.00
2023-01-17T00:52:14.577Z,3.00
2023-01-17T00:55:00.344Z,3.50
2023-01-17T00:57:45.662Z,2.75
2023-01-17T01:00:31.518Z,3.00
2023-01-17T01:03:17.286Z,5.00
2023-01-17T01:06:02.457Z,2.00
2023-01-17T01:08:49.333Z,2.50
2023-01-17T01:11:39.735Z,6.00
2023-01-17T01:14:28.815Z,3.50
2023-01-17T01:17:14.071Z,2.00
2023-01-17T01:19:59.828Z,2.00
2023-01-17T01:22:45.390Z,2.75
2023-01-17T01:25:31.011Z,3.00
2023-01-17T01:28:30.798Z,5.75
2023-01-17T01:31:19.107Z,1.75
2023-01-17T01:33:46.063Z,2.25
2023-01-17T01:36:13.031Z,2.00
2023-01-17T01:38:40.281Z,3.50
2023-01-17T01:41:07.399Z,4.50
2023-01-17T01:43:48.210Z,1.50
2023-01-17T01:46:27.292Z,2.00
2023-01-17T01:49:01.939Z,4.50
2023-01-17T01:51:35.307Z,5.00
2023-01-17T01:54:10.929Z,4.50
2023-01-17T01:56:39.356Z,5.00
2023-01-17T01:59:10.883Z,2.00
2023-01-17T02:01:38.028Z,4.00
2023-01-17T02:04:10.118Z,3.00
2023-01-17T02:07:07.575Z,3.50
2023-01-17T02:09:52.569Z,3.00
2023-01-17T02:12:30.689Z,2.50
2023-01-17T02:15:18.679Z,3.00
2023-01-17T02:18:53.307Z,1.00
2023-01-17T02:21:59.098Z,1.50
2023-01-17T02:25:19.172Z,3.00
2023-01-17T02:28:18.594Z,2.50
2023-01-17T02:31:01.070Z,3.00
2023-01-17T02:33:36.405Z,3.50
2023-01-17T02:36:19.404Z,1.25
2023-01-17T02:39:11.335Z,2.25
2023-01-17T02:41:41.858Z,3.00
2023-01-17T02:44:10.523Z,2.50
2023-01-17T02:46:48.494Z,1.00
2023-01-17T02:49:18.033Z,6.00
2023-01-17T02:52:13.157Z,2.50
2023-01-17T02:54:53.947Z,6.00
2023-01-17T02:57:39.049Z,6.50
2023-01-17T03:00:24.711Z,7.50
2023-01-17T03:02:58.271Z,9.25
2023-01-17T03:05:47.149Z,6.00
2023-01-17T03:08:16.184Z,9.00
2023-01-17T03:10:44.703Z,6.00
2023-01-17T03:13:11.694Z,8.00
2023-01-17T03:15:41.101Z,9.75
2023-01-17T03:18:14.987Z,0.25
2023-01-17T03:20:42.544Z,5.25
2023-01-17T03:23:09.469Z,10.25
2023-01-17T03:25:36.455Z,9.00
2023-01-17T03:28:03.756Z,9.50
2023-01-17T03:30:30.928Z,18.33
2023-01-17T03:32:57.933Z,15.00
2023-01-17T03:35:24.859Z,11.75
2023-01-17T03:37:51.774Z,8.00
2023-01-17T03:40:18.800Z,10.00
2023-01-17T03:42:45.865Z,26.00
2023-01-17T03:45:12.808Z,36.00
2023-01-17T03:47:40.081Z,38.33
2023-01-17T03:50:07.332Z,25.33
2023-01-17T03:52:34.403Z,18.33
2023-01-17T03:55:02.869Z,12.00
2023-01-17T03:57:30.035Z,7.50
2023-01-17T03:59:57.094Z,9.00
2023-01-17T04:02:24.871Z,5.25
2023-01-17T04:04:53.953Z,5.00
2023-01-17T04:07:20.967Z,6.00
2023-01-17T04:09:47.901Z,4.00
2023-01-17T04:12:14.860Z,2.75
2023-01-17T04:14:41.801Z,3.50
2023-01-17T04:17:13.302Z,3.50
2023-01-17T04:19:41.470Z,1.00
2023-01-17T04:22:08.899Z,1.00
2023-01-17T04:24:36.160Z,0.00
2023-01-17T04:27:05.244Z,1.75
2023-01-17T04:29:32.791Z,1.00
2023-01-17T04:31:59.690Z,1.00
2023-01-17T04:34:27.184Z,1.00
2023-01-17T04:36:54.155Z,2.00
2023-01-17T04:39:21.084Z,9.50
2023-01-17T04:41:48.662Z,5.00
2023-01-17T04:44:15.618Z,4.50
2023-01-17T04:46:42.533Z,4.00
2023-01-17T04:49:09.403Z,1.75
2023-01-17T04:51:36.570Z,2.00
2023-01-17T04:54:04.649Z,3.50
2023-01-17T04:56:31.662Z,1.00
2023-01-17T04:58:58.834Z,1.00
2023-01-17T05:01:26.211Z,8.75
2023-01-17T05:03:53.155Z,34.00
2023-01-17T05:06:20.067Z,31.33
2023-01-17T05:08:47.248Z,33.33
2023-01-17T05:11:14.324Z,29.67
2023-01-17T05:13:41.264Z,30.33
2023-01-17T05:16:09.818Z,25.00
2023-01-17T05:18:37.867Z,23.33
2023-01-17T05:21:05.715Z,25.67
2023-01-17T05:23:33.315Z,32.00
2023-01-17T05:26:00.353Z,20.67
2023-01-17T05:28:27.279Z,25.00
2023-01-17T05:30:54.236Z,17.00
2023-01-17T05:33:21.184Z,17.00
2023-01-17T05:35:48.105Z,12.67
2023-01-17T05:38:15.053Z,11.00
2023-01-17T05:40:42.071Z,11.33
2023-01-17T05:43:09.840Z,15.00
2023-01-17T05:45:36.787Z,15.67
2023-01-17T05:48:04.304Z,10.00
2023-01-17T05:50:33.650Z,12.00
2023-01-17T05:53:08.731Z,7.50
2023-01-17T05:55:38.144Z,5.00
2023-01-17T05:58:06.587Z,4.00
2023-01-17T06:00:33.559Z,16.33
2023-01-17T06:03:01.731Z,26.00
2023-01-17T06:05:30.449Z,30.00
2023-01-17T06:07:57.652Z,30.00
2023-01-17T06:10:24.969Z,27.33
2023-01-17T06:13:08.463Z,34.33
2023-01-17T06:15:37.600Z,21.33
2023-01-17T06:18:16.135Z,18.00
2023-01-17T06:20:44.222Z,26.33
2023-01-17T06:23:14.358Z,19.00
2023-01-17T06:25:46.682Z,10.33
2023-01-17T06:28:16.235Z,14.33
2023-01-17T06:30:44.388Z,11.00
2023-01-17T06:33:12.533Z,9.25
2023-01-17T06:35:41.147Z,8.50
2023-01-17T06:38:10.212Z,5.25
2023-01-17T06:40:37.140Z,6.50
2023-01-17T06:43:05.297Z,4.00
2023-01-17T06:45:35.248Z,6.00
2023-01-17T06:48:04.338Z,8.50
2023-01-17T06:50:34.724Z,9.00
2023-01-17T06:53:04.575Z,11.25
2023-01-17T06:55:34.016Z,23.67
2023-01-17T06:58:03.161Z,36.67
2023-01-17T07:00:40.712Z,33.00
2023-01-17T07:03:17.578Z,29.33
2023-01-17T07:05:44.597Z,40.33
2023-01-17T07:08:11.534Z,27.67
2023-01-17T07:10:38.464Z,33.00
2023-01-17T07:13:05.415Z,31.33
2023-01-17T07:15:33.528Z,31.33
2023-01-17T07:18:02.206Z,27.33
2023-01-17T07:20:29.260Z,34.00
2023-01-17T07:22:56.345Z,23.33
2023-01-17T07:25:23.583Z,20.33
2023-01-17T07:27:54.996Z,20.67
2023-01-17T07:30:22.408Z,12.75
2023-01-17T07:32:53.648Z,10.00
2023-01-17T07:35:21.279Z,12.75
2023-01-17T07:37:49.745Z,39.00
2023-01-17T07:40:17.914Z,31.67
2023-01-17T07:42:45.331Z,47.00
2023-01-17T07:45:15.027Z,54.00
2023-01-17T07:47:42.173Z,44.00
2023-01-17T07:50:10.061Z,41.33
2023-01-17T07:52:37.023Z,37.33
2023-01-17T07:55:04.123Z,27.00
2023-01-17T07:57:32.982Z,19.00
2023-01-17T08:00:00.140Z,21.67
2023-01-17T08:02:27.069Z,17.33
2023-01-17T08:04:53.991Z,20.00
2023-01-17T08:07:21.062Z,19.67
2023-01-17T08:09:49.931Z,17.75
2023-01-17T08:12:17.462Z,17.75
2023-01-17T08:14:44.876Z,24.00
2023-01-17T08:17:17.065Z,24.67
2023-01-17T08:19:45.104Z,17.33
2023-01-17T08:22:12.619Z,28.00
2023-01-17T08:24:39.571Z,22.33
2023-01-17T08:27:06.531Z,16.00
2023-01-17T08:29:33.546Z,10.75
2023-01-17T08:32:00.536Z,33.00
2023-01-17T08:34:27.575Z,41.00
2023-01-17T08:36:54.794Z,22.67
2023-01-17T08:39:22.109Z,42.00
2023-01-17T08:41:48.988Z,41.33
2023-01-17T08:44:18.935Z,32.00
2023-01-17T08:46:46.321Z,29.33
2023-01-17T08:49:13.336Z,28.67
2023-01-17T08:51:40.540Z,14.25
2023-01-17T08:54:09.745Z,26.50
2023-01-17T08:56:36.698Z,34.67
2023-01-17T08:59:04.851Z,22.25
2023-01-17T09:01:40.993Z,28.67
2023-01-17T09:04:09.597Z,28.00
2023-01-17T09:06:39.498Z,17.75
2023-01-17T09:09:08.286Z,18.25
2023-01-17T09:11:35.250Z,20.00
2023-01-17T09:14:02.243Z,29.33
2023-01-17T09:16:29.631Z,34.67
2023-01-17T09:18:58.204Z,17.75
2023-01-17T09:21:26.567Z,19.00
2023-01-17T09:23:54.695Z,21.00
2023-01-17T09:26:27.352Z,19.00
2023-01-17T09:28:54.935Z,26.00
2023-01-17T09:31:23.280Z,22.00
2023-01-17T09:33:51.557Z,20.25
2023-01-17T09:36:18.964Z,17.00
2023-01-17T09:38:46.512Z,15.50
2023-01-17T09:41:22.470Z,14.00
2023-01-17T09:44:18.756Z,16.00
2023-01-17T09:46:49.379Z,12.75
2023-01-17T09:49:19.298Z,16.00
2023-01-17T09:51:46.474Z,16.75
2023-01-17T09:54:39.298Z,18.50
2023-01-17T09:57:29.204Z,15.75
2023-01-17T10:00:25.293Z,15.25
2023-01-17T10:03:32.287Z,18.50
2023-01-17T10:06:11.885Z,15.00
2023-01-17T10:08:54.190Z,18.50
2023-01-17T10:11:31.018Z,16.00
2023-01-17T10:14:16.350Z,20.25
2023-01-17T10:16:49.116Z,18.50
2023-01-17T10:19:53.013Z,15.50
2023-01-17T10:22:55.216Z,17.50
2023-01-17T10:25:46.817Z,21.00
2023-01-17T10:28:21.815Z,25.25
2023-01-17T10:30:58.347Z,27.75
2023-01-17T10:33:29.795Z,19.25
2023-01-17T10:36:03.954Z,24.50
2023-01-17T10:38:34.945Z,22.25
2023-01-17T10:41:10.983Z,24.50
2023-01-17T10:43:50.891Z,25.25
2023-01-17T10:46:25.336Z,29.75
2023-01-17T10:48:53.143Z,23.50
2023-01-17T10:51:44.207Z,18.00
2023-01-17T10:54:36.269Z,15.00
2023-01-17T10:57:03.270Z,12.25
2023-01-17T10:59:33.759Z,15.00
2023-01-17T11:02:07.227Z,11.75
2023-01-17T11:04:37.829Z,6.50
2023-01-17T11:07:16.457Z,12.50
2023-01-17T11:09:46.311Z,10.50
2023-01-17T11:12:46.373Z,14.25
2023-01-17T11:15:23.016Z,15.00
2023-01-17T11:18:02.478Z,11.50
2023-01-17T11:20:37.206Z,12.75
2023-01-17T11:23:16.029Z,12.50
2023-01-17T11:25:58.540Z,12.75
2023-01-17T11:28:30.816Z,4.00
2023-01-17T11:30:59.052Z,11.50
2023-01-17T11:33:55.873Z,12.00
2023-01-17T11:36:30.961Z,15.00
2023-01-17T11:39:27.731Z,11.00
2023-01-17T11:41:54.848Z,14.00
2023-01-17T11:44:30.762Z,11.25
2023-01-17T11:47:13.061Z,11.75
2023-01-17T11:49:45.137Z,8.00
2023-01-17T11:52:39.381Z,11.75
2023-01-17T11:55:07.599Z,9.25
2023-01-17T11:57:36.424Z,8.00
2023-01-17T12:00:19.578Z,9.00
2023-01-17T12:02:49.369Z,7.00
2023-01-17T12:05:31.413Z,6.50
2023-01-17T12:08:06.300Z,7.50
2023-01-17T12:10:43.063Z,8.00
2023-01-17T12:13:47.463Z,7.00
2023-01-17T12:16:30.799Z,5.00
2023-01-17T12:19:22.745Z,7.25
2023-01-17T12:22:06.029Z,7.75
2023-01-17T12:24:45.697Z,6.50
2023-01-17T12:27:42.794Z,11.00
2023-01-17T12:30:31.054Z,7.00
2023-01-17T12:33:41.380Z,8.00
2023-01-17T12:36:19.833Z,6.00
2023-01-17T12:38:48.455Z,6.00
2023-01-17T12:41:26.869Z,6.25
2023-01-17T12:44:01.134Z,4.00
2023-01-17T12:46:40.954Z,4.00
2023-01-17T12:49:20.413Z,6.00
2023-01-17T12:51:52.476Z,7.50
2023-01-17T12:54:42.218Z,7.00
2023-01-17T12:57:18.615Z,4.25
2023-01-17T12:59:58.564Z,6.00
2023-01-17T13:02:37.625Z,3.75
2023-01-17T13:05:07.676Z,4.00
2023-01-17T13:07:46.436Z,3.00
2023-01-17T13:10:22.685Z,3.00
2023-01-17T13:12:51.315Z,3.50
2023-01-17T13:15:23.013Z,4.00
2023-01-17T13:17:59.769Z,2.75
2023-01-17T13:20:32.154Z,4.50
2023-01-17T13:23:12.664Z,2.00
2023-01-17T13:25:49.576Z,5.00
2023-01-17T13:28:29.284Z,4.00
2023-01-17T13:31:08.364Z,3.00
2023-01-17T13:34:10.360Z,3.00
2023-01-17T13:36:46.583Z,3.00
2023-01-17T13:39:37.553Z,4.50
2023-01-17T13:42:27.729Z,3.75
2023-01-17T13:44:55.295Z,3.00
2023-01-17T13:47:23.720Z,3.00
2023-01-17T13:49:56.412Z,1.50
2023-01-17T13:52:26.208Z,3.00
2023-01-17T13:54:54.178Z,4.00
2023-01-17T13:57:29.579Z,3.50
2023-01-17T13:59:58.885Z,4.00
2023-01-17T14:02:31.760Z,3.50
2023-01-17T14:05:21.595Z,5.75
2023-01-17T14:07:52.545Z,4.50
2023-01-17T14:10:34.872Z,4.00
2023-01-17T14:13:03.397Z,14.50
2023-01-17T14:15:35.121Z,11.00
2023-01-17T14:18:04.979Z,12.50
2023-01-17T14:20:45.183Z,9.00
2023-01-17T14:23:26.439Z,10.75
2023-01-17T14:25:54.073Z,8.25
2023-01-17T14:28:38.904Z,6.00
2023-01-17T14:31:11.185Z,8.00
2023-01-17T14:33:40.574Z,6.50
2023-01-17T14:36:31.053Z,7.00
2023-01-17T14:38:58.104Z,3.25
2023-01-17T14:41:53.288Z,2.25
2023-01-17T14:44:20.351Z,3.00
2023-01-17T14:46:49.201Z,5.00
2023-01-17T14:49:24.333Z,8.00
2023-01-17T14:52:02.473Z,2.00
2023-01-17T14:54:29.744Z,3.00
2023-01-17T14:57:23.002Z,3.25
2023-01-17T14:59:50.051Z,1.25
2023-01-17T15:02:18.869Z,1.25
2023-01-17T15:04:55.564Z,1.00
2023-01-17T15:07:24.112Z,1.25
2023-01-17T15:09:51.125Z,1.00
2023-01-17T15:12:19.790Z,1.00
2023-01-17T15:14:47.015Z,1.00
2023-01-17T15:17:25.068Z,1.50
2023-01-17T15:19:57.376Z,1.00
2023-01-17T15:22:26.269Z,2.50
2023-01-17T15:24:56.431Z,2.00
2023-01-17T15:27:24.924Z,3.75
2023-01-17T15:29:52.667Z,10.25
2023-01-17T15:32:28.174Z,7.25
2023-01-17T15:34:55.310Z,6.00
2023-01-17T15:37:35.632Z,7.00
2023-01-17T15:40:33.447Z,5.25
2023-01-17T15:43:01.967Z,3.00
2023-01-17T15:45:33.537Z,2.00
2023-01-17T15:48:39.021Z,3.50
2023-01-17T15:51:06.424Z,3.00
2023-01-17T15:53:37.005Z,0.00
2023-01-17T15:56:31.997Z,2.25
2023-01-17T15:59:34.111Z,2.00
2023-01-17T16:02:02.615Z,6.00
2023-01-17T16:04:35.566Z,3.50
2023-01-17T16:07:20.616Z,5.75
2023-01-17T16:09:49.989Z,8.25
2023-01-17T16:12:16.881Z,12.00
2023-01-17T16:14:59.510Z,17.00
2023-01-17T16:17:32.047Z,16.75
2023-01-17T16:19:59.751Z,32.33
2023-01-17T16:22:27.610Z,23.25
2023-01-17T16:24:59.176Z,18.25
2023-01-17T16:27:26.158Z,8.75
2023-01-17T16:29:56.404Z,13.25
2023-01-17T16:32:23.446Z,13.75
2023-01-17T16:34:50.370Z,21.50
2023-01-17T16:37:17.303Z,23.00
2023-01-17T16:39:44.559Z,25.00
2023-01-17T16:42:12.519Z,44.33
2023-01-17T16:44:39.505Z,54.67
2023-01-17T16:47:06.445Z,53.00
2023-01-17T16:49:33.449Z,41.00
2023-01-17T16:52:00.589Z,34.67
2023-01-17T16:54:28.012Z,23.00
2023-01-17T16:56:55.229Z,17.33
2023-01-17T16:59:23.152Z,9.67
2023-01-17T17:01:53.784Z,16.75
2023-01-17T17:04:20.850Z,14.67
2023-01-17T17:06:47.817Z,10.00
2023-01-17T17:09:14.696Z,16.67
2023-01-17T17:11:42.477Z,24.33
2023-01-17T17:14:09.688Z,20.00
2023-01-17T17:16:38.916Z,22.00
2023-01-17T17:19:07.505Z,27.67
2023-01-17T17:21:35.874Z,50.00
2023-01-17T17:24:03.193Z,52.00
2023-01-17T17:26:34.383Z,43.67
2023-01-17T17:29:02.223Z,41.00
2023-01-17T17:31:29.373Z,33.67
2023-01-17T17:34:01.399Z,40.67
2023-01-17T17:36:29.075Z,51.00
2023-01-17T17:38:57.803Z,62.00
2023-01-17T17:41:27.752Z,62.75
2023-01-17T17:43:55.323Z,61.00
2023-01-17T17:46:24.080Z,46.67
2023-01-17T17:48:51.525Z,42.33
2023-01-17T17:51:31.079Z,41.00
2023-01-17T17:54:03.304Z,27.33
2023-01-17T17:56:32.047Z,22.00
2023-01-17T17:59:00.053Z,16.33
2023-01-17T18:01:27.260Z,14.67
2023-01-17T18:03:57.721Z,14.00
2023-01-17T18:06:24.696Z,36.33
2023-01-17T18:08:54.920Z,39.00
2023-01-17T18:11:24.713Z,37.67
2023-01-17T18:13:55.179Z,31.00
2023-01-17T18:16:28.155Z,18.67
2023-01-17T18:18:57.624Z,13.33
2023-01-17T18:21:33.921Z,30.67
2023-01-17T18:24:06.985Z,52.00
2023-01-17T18:26:37.275Z,50.33
2023-01-17T18:29:05.784Z,53.67
2023-01-17T18:31:32.820Z,45.33
2023-01-17T18:34:03.847Z,41.00
2023-01-17T18:36:31.136Z,54.67
2023-01-17T18:38:58.533Z,55.67
2023-01-17T18:41:29.366Z,55.00
2023-01-17T18:43:56.861Z,52.33
2023-01-17T18:46:26.437Z,54.00
2023-01-17T18:48:57.475Z,51.00
2023-01-17T18:51:24.960Z,63.75
2023-01-17T18:53:53.224Z,57.67
2023-01-17T18:56:22.581Z,68.00
2023-01-17T18:58:51.244Z,71.50
2023-01-17T19:01:27.521Z,77.75
2023-01-17T19:04:00.097Z,71.00
2023-01-17T19:06:36.441Z,71.00
2023-01-17T19:09:04.514Z,63.00
2023-01-17T19:11:31.530Z,97.50
2023-01-17T19:13:58.504Z,96.75
2023-01-17T19:16:28.605Z,79.00
2023-01-17T19:18:58.257Z,73.50
2023-01-17T19:21:27.742Z,71.00
2023-01-17T19:23:56.199Z,72.75
2023-01-17T19:26:25.296Z,76.50
2023-01-17T19:28:53.053Z,72.25
2023-01-17T19:31:22.318Z,72.75
2023-01-17T19:33:51.047Z,76.25
2023-01-17T19:36:21.212Z,70.25
2023-01-17T19:39:03.016Z,67.50
2023-01-17T19:41:32.614Z,58.00
2023-01-17T19:44:04.558Z,51.00
2023-01-17T19:46:32.647Z,55.00
2023-01-17T19:48:59.851Z,53.00
2023-01-17T19:51:27.343Z,41.00
2023-01-17T19:53:55.439Z,46.33
2023-01-17T19:56:25.013Z,49.67
2023-01-17T19:58:53.068Z,43.67
2023-01-17T20:01:28.883Z,32.00
2023-01-17T20:03:58.144Z,39.00
2023-01-17T20:06:27.971Z,40.00
2023-01-17T20:08:55.047Z,34.67
2023-01-17T20:11:23.891Z,35.00
2023-01-17T20:13:55.839Z,42.67
2023-01-17T20:16:24.197Z,29.33
2023-01-17T20:18:51.917Z,34.33
2023-01-17T20:21:24.523Z,37.33
2023-01-17T20:23:52.465Z,20.67
2023-01-17T20:26:25.374Z,16.33
2023-01-17T20:28:53.503Z,21.33
2023-01-17T20:31:25.512Z,31.33
2023-01-17T20:33:56.419Z,26.67
2023-01-17T20:36:25.935Z,18.00
2023-01-17T20:38:54.660Z,19.33
2023-01-17T20:41:29.037Z,33.00
2023-01-17T20:43:58.347Z,34.00
2023-01-17T20:46:28.257Z,33.67
2023-01-17T20:48:58.484Z,43.67
2023-01-17T20:51:28.024Z,33.33
2023-01-17T20:54:05.769Z,23.33
2023-01-17T20:56:37.976Z,24.67
2023-01-17T20:59:07.831Z,26.33
2023-01-17T21:01:35.306Z,23.33
2023-01-17T21:04:03.431Z,20.33
2023-01-17T21:06:30.758Z,18.00
2023-01-17T21:08:57.745Z,14.25
2023-01-17T21:11:27.935Z,13.00
2023-01-17T21:13:54.931Z,20.00
2023-01-17T21:16:23.194Z,14.00
2023-01-17T21:18:51.769Z,26.67
2023-01-17T21:21:23.706Z,39.33
2023-01-17T21:23:52.920Z,30.67
2023-01-17T21:26:22.358Z,30.33
2023-01-17T21:28:50.899Z,34.33
2023-01-17T21:31:24.019Z,30.00
2023-01-17T21:34:11.418Z,38.00
2023-01-17T21:36:40.822Z,39.00
2023-01-17T21:39:12.913Z,46.00
2023-01-17T21:41:41.297Z,41.67
2023-01-17T21:44:24.351Z,42.33
2023-01-17T21:46:56.355Z,40.00
2023-01-17T21:49:23.673Z,31.33
2023-01-17T21:51:53.711Z,33.00
2023-01-17T21:54:44.241Z,35.33
2023-01-17T21:57:30.816Z,37.33
2023-01-17T21:59:57.823Z,38.67
2023-01-17T22:02:24.798Z,42.33
2023-01-17T22:04:51.772Z,43.00
2023-01-17T22:07:18.725Z,44.00
2023-01-17T22:09:45.685Z,44.00
2023-01-17T22:12:16.146Z,49.00
2023-01-17T22:14:43.081Z,41.33
2023-01-17T22:17:09.999Z,54.00
2023-01-17T22:19:36.961Z,45.33
2023-01-17T22:22:04.176Z,50.67
2023-01-17T22:24:31.131Z,42.67
2023-01-17T22:26:58.010Z,50.67
2023-01-17T22:29:25.134Z,38.67
2023-01-17T22:31:52.039Z,41.67
2023-01-17T22:34:19.154Z,29.33
2023-01-17T22:36:46.063Z,33.67
2023-01-17T22:39:13.073Z,36.33
2023-01-17T22:41:40.073Z,32.33
2023-01-17T22:44:07.829Z,40.00
2023-01-17T22:46:38.643Z,46.67
2023-01-17T22:49:07.852Z,42.00
2023-01-17T22:51:35.463Z,44.33
2023-01-17T22:54:02.919Z,44.00
2023-01-17T22:56:32.381Z,50.33
2023-01-17T22:59:01.015Z,41.67
2023-01-17T23:01:30.414Z,33.33
2023-01-17T23:04:00.211Z,42.67
2023-01-17T23:06:32.243Z,44.00
2023-01-17T23:09:02.006Z,47.33
2023-01-17T23:11:39.235Z,44.33
2023-01-17T23:14:06.876Z,41.00
2023-01-17T23:16:52.901Z,41.67
2023-01-17T23:19:22.833Z,44.33
2023-01-17T23:22:14.572Z,41.00
2023-01-17T23:24:43.559Z,14.00
2023-01-17T23:27:31.472Z,39.67
2023-01-17T23:29:58.694Z,34.33
2023-01-17T23:32:26.408Z,41.33
2023-01-17T23:34:53.704Z,35.00
2023-01-17T23:37:20.653Z,36.33
2023-01-17T23:39:47.624Z,34.00
2023-01-17T23:42:34.365Z,30.67
2023-01-17T23:45:01.343Z,20.00
2023-01-17T23:47:28.324Z,24.00
2023-01-17T23:49:57.281Z,21.67
2023-01-17T23:52:24.324Z,12.50
2023-01-17T23:54:51.698Z,29.33
2023-01-17T23:57:20.008Z,18.00
2023-01-17T23:59:46.966Z,33.67
